Gokay K — TCHF — position and weather

sailwx.info

Track history (hours):
 
Tides and Currents Weather Stations Pressure Air Temp Water Temp Dewpoint Dewpoint Depression Visibility Wind Speed Wind Dir Waves Ship Positions

Gokay K

Last reported at 2016-Feb-23 01:34 UTC. Time now 2016-Jul-01 19:05 UTC.
Position N 46°40' E 031°56'.
Warning: this ship's position is months out of date.

Length 118 m; draft 7.3 m.

Type: Ship. MMSI: 271000029.

Date/timePositionNaut miles runAvg speedWind from/ knotsBaromVisibWave heightAir tempDewpointWater temp
2016-Feb-23 01:34N 46°40' E 031°56'7 7.1
2016-Feb-23 00:33N 46°47' E 031°53'7 7.4
2016-Feb-22 23:33N 46°53' E 031°60'4 3.8
2016-Feb-22 22:32N 46°57' E 032°00'0 0.0
2016-Feb-22 21:32N 46°57' E 032°00'0 0.0
2016-Feb-22 20:32N 46°57' E 032°00'0 0.0
2016-Feb-22 19:32N 46°57' E 032°00'0 0.0
2016-Feb-22 18:32N 46°57' E 032°00'0 0.0
2016-Feb-22 17:32N 46°57' E 032°00'0 0.0
2016-Feb-22 16:32N 46°57' E 032°00'0 0.0
2016-Feb-22 15:32N 46°57' E 032°00'0 0.0
2016-Feb-22 14:32N 46°57' E 032°00'0 0.0
2016-Feb-22 13:32N 46°57' E 032°00'0 0.0
2016-Feb-22 12:32N 46°57' E 032°00'0 0.0
2016-Feb-22 11:32N 46°57' E 032°00'0 0.0
2016-Feb-22 10:33N 46°57' E 032°00'0 0.0
2016-Feb-22 09:33N 46°57' E 032°00'0 0.0
2016-Feb-22 08:33N 46°57' E 032°00'0 0.0
2016-Feb-22 07:33N 46°57' E 032°00'0 0.0
2016-Feb-22 06:27N 46°57' E 032°00'0 0.0
2016-Feb-22 05:33N 46°57' E 032°00'0 0.0
2016-Feb-22 04:33N 46°57' E 032°00'0 0.0
2016-Feb-22 03:33N 46°57' E 032°00'0 0.0
2016-Feb-22 02:33N 46°57' E 032°00'0 0.0
2016-Feb-22 01:33N 46°57' E 032°00'0 0.0
2016-Feb-22 00:33N 46°57' E 032°00'0 0.0
2016-Feb-21 23:33N 46°57' E 032°00'0 0.0
2016-Feb-21 22:33N 46°57' E 032°00'0 0.0
2016-Feb-21 21:33N 46°57' E 032°00'0 0.0
2016-Feb-21 20:33N 46°57' E 032°00'0 0.0
2016-Feb-21 19:33N 46°57' E 032°00'0 0.0
2016-Feb-21 18:33N 46°57' E 032°00'0 0.0
2016-Feb-21 17:33N 46°57' E 032°00'0 0.0
2016-Feb-21 16:33N 46°57' E 032°00'0 0.0
2016-Feb-21 15:33N 46°57' E 032°00'0 0.0
2016-Feb-21 14:33N 46°57' E 032°00'0 0.0
2016-Feb-21 13:33N 46°57' E 032°00'0 0.0
2016-Feb-21 12:30N 46°57' E 032°00'0 0.0
2016-Feb-21 11:30N 46°57' E 032°00'0 0.0
2016-Feb-21 10:30N 46°57' E 032°00'0 0.1
2016-Feb-21 09:30N 46°57' E 032°00'0 0.0
2016-Feb-21 08:30N 46°57' E 032°00'0 0.0
2016-Feb-21 07:30N 46°57' E 032°00'0 0.0
2016-Feb-21 06:30N 46°57' E 032°00'0 0.0
2016-Feb-21 05:30N 46°57' E 032°00'0 0.0
2016-Feb-21 04:30N 46°57' E 032°00'0 0.0
2016-Feb-21 03:30N 46°57' E 032°00'0 0.0
2016-Feb-21 02:30N 46°57' E 032°00'0 0.0
2016-Feb-21 01:33N 46°57' E 032°00'0 0.0
2016-Feb-21 00:33N 46°57' E 032°00'0 0.0
2016-Feb-20 23:33N 46°57' E 032°00'0 0.0
2016-Feb-20 22:33N 46°57' E 032°00'0 0.0
2016-Feb-20 21:33N 46°57' E 032°00'0 0.0
2016-Feb-20 20:33N 46°57' E 032°00'0 0.0
2016-Feb-20 19:33N 46°57' E 032°00'0 0.0
2016-Feb-20 18:33N 46°57' E 032°00'0 0.0
2016-Feb-20 17:33N 46°57' E 032°00'0 0.0
2016-Feb-20 16:33N 46°57' E 032°00'0 0.0
2016-Feb-20 15:33N 46°57' E 032°00'0 0.0
2016-Feb-20 14:33N 46°57' E 032°00'0 0.0
2016-Feb-20 13:33N 46°57' E 032°00'0 0.4
2016-Feb-20 12:33N 46°56' E 032°00'5 5.3
2016-Feb-20 11:33N 46°51' E 031°58'7 7.3
2016-Feb-20 10:33N 46°45' E 031°54'7 7.1
2016-Feb-20 09:33N 46°38' E 031°54'  
Track history (hours):
 
Tides and Currents Weather Stations Pressure Air Temp Water Temp Dewpoint Dewpoint Depression Visibility Wind Speed Wind Dir Waves Ship Positions

Gokay K

Last reported at 2016-Feb-23 01:34 UTC. Time now 2016-Jul-01 19:05 UTC.
Position N 46°40' E 031°56'.
Warning: this ship's position is months out of date.

Length 118 m; draft 7.3 m.

Type: Ship. MMSI: 271000029.

Date/timePositionNaut miles runAvg speedWind from/ knotsBaromVisibWave heightAir tempDewpointWater temp
2016-Feb-23 01:34N 46°40' E 031°56'7 7.1
2016-Feb-23 00:33N 46°47' E 031°53'7 7.4
2016-Feb-22 23:33N 46°53' E 031°60'4 3.8
2016-Feb-22 22:32N 46°57' E 032°00'0 0.0
2016-Feb-22 21:32N 46°57' E 032°00'0 0.0
2016-Feb-22 20:32N 46°57' E 032°00'0 0.0
2016-Feb-22 19:32N 46°57' E 032°00'0 0.0
2016-Feb-22 18:32N 46°57' E 032°00'0 0.0
2016-Feb-22 17:32N 46°57' E 032°00'0 0.0
2016-Feb-22 16:32N 46°57' E 032°00'0 0.0
2016-Feb-22 15:32N 46°57' E 032°00'0 0.0
2016-Feb-22 14:32N 46°57' E 032°00'0 0.0
2016-Feb-22 13:32N 46°57' E 032°00'0 0.0
2016-Feb-22 12:32N 46°57' E 032°00'0 0.0
2016-Feb-22 11:32N 46°57' E 032°00'0 0.0
2016-Feb-22 10:33N 46°57' E 032°00'0 0.0
2016-Feb-22 09:33N 46°57' E 032°00'0 0.0
2016-Feb-22 08:33N 46°57' E 032°00'0 0.0
2016-Feb-22 07:33N 46°57' E 032°00'0 0.0
2016-Feb-22 06:27N 46°57' E 032°00'0 0.0
2016-Feb-22 05:33N 46°57' E 032°00'0 0.0
2016-Feb-22 04:33N 46°57' E 032°00'0 0.0
2016-Feb-22 03:33N 46°57' E 032°00'0 0.0
2016-Feb-22 02:33N 46°57' E 032°00'0 0.0
2016-Feb-22 01:33N 46°57' E 032°00'0 0.0
2016-Feb-22 00:33N 46°57' E 032°00'0 0.0
2016-Feb-21 23:33N 46°57' E 032°00'0 0.0
2016-Feb-21 22:33N 46°57' E 032°00'0 0.0
2016-Feb-21 21:33N 46°57' E 032°00'0 0.0
2016-Feb-21 20:33N 46°57' E 032°00'0 0.0
2016-Feb-21 19:33N 46°57' E 032°00'0 0.0
2016-Feb-21 18:33N 46°57' E 032°00'0 0.0
2016-Feb-21 17:33N 46°57' E 032°00'0 0.0
2016-Feb-21 16:33N 46°57' E 032°00'0 0.0
2016-Feb-21 15:33N 46°57' E 032°00'0 0.0
2016-Feb-21 14:33N 46°57' E 032°00'0 0.0
2016-Feb-21 13:33N 46°57' E 032°00'0 0.0
2016-Feb-21 12:30N 46°57' E 032°00'0 0.0
2016-Feb-21 11:30N 46°57' E 032°00'0 0.0
2016-Feb-21 10:30N 46°57' E 032°00'0 0.1
2016-Feb-21 09:30N 46°57' E 032°00'0 0.0
2016-Feb-21 08:30N 46°57' E 032°00'0 0.0
2016-Feb-21 07:30N 46°57' E 032°00'0 0.0
2016-Feb-21 06:30N 46°57' E 032°00'0 0.0
2016-Feb-21 05:30N 46°57' E 032°00'0 0.0
2016-Feb-21 04:30N 46°57' E 032°00'0 0.0
2016-Feb-21 03:30N 46°57' E 032°00'0 0.0
2016-Feb-21 02:30N 46°57' E 032°00'0 0.0
2016-Feb-21 01:33N 46°57' E 032°00'0 0.0
2016-Feb-21 00:33N 46°57' E 032°00'0 0.0
2016-Feb-20 23:33N 46°57' E 032°00'0 0.0
2016-Feb-20 22:33N 46°57' E 032°00'0 0.0
2016-Feb-20 21:33N 46°57' E 032°00'0 0.0
2016-Feb-20 20:33N 46°57' E 032°00'0 0.0
2016-Feb-20 19:33N 46°57' E 032°00'0 0.0
2016-Feb-20 18:33N 46°57' E 032°00'0 0.0
2016-Feb-20 17:33N 46°57' E 032°00'0 0.0
2016-Feb-20 16:33N 46°57' E 032°00'0 0.0
2016-Feb-20 15:33N 46°57' E 032°00'0 0.0
2016-Feb-20 14:33N 46°57' E 032°00'0 0.0
2016-Feb-20 13:33N 46°57' E 032°00'0 0.4
2016-Feb-20 12:33N 46°56' E 032°00'5 5.3
2016-Feb-20 11:33N 46°51' E 031°58'7 7.3
2016-Feb-20 10:33N 46°45' E 031°54'7 7.1
2016-Feb-20 09:33N 46°38' E 031°54'  

Dump ship's entire track history